createdAt,value
2023-09-02T00:01:58.589Z,24.50
2023-09-02T00:04:25.167Z,24.05
2023-09-02T00:06:52.076Z,25.65
2023-09-02T00:09:18.595Z,22.92
2023-09-02T00:11:45.210Z,22.55
2023-09-02T00:14:12.877Z,23.83
2023-09-02T00:16:39.567Z,25.10
2023-09-02T00:19:06.162Z,24.40
2023-09-02T00:21:34.213Z,24.15
2023-09-02T00:24:06.675Z,25.42
2023-09-02T00:26:34.037Z,23.70
2023-09-02T00:29:02.015Z,23.25
2023-09-02T00:31:30.034Z,22.65
2023-09-02T00:33:56.996Z,23.75
2023-09-02T00:36:23.689Z,22.52
2023-09-02T00:38:50.338Z,22.20
2023-09-02T00:41:35.578Z,22.23
2023-09-02T00:44:03.028Z,22.70
2023-09-02T00:46:29.781Z,22.58
2023-09-02T00:48:56.551Z,23.05
2023-09-02T00:51:23.245Z,23.08
2023-09-02T00:53:49.851Z,23.70
2023-09-02T00:56:17.244Z,23.65
2023-09-02T00:58:45.222Z,23.90
2023-09-02T01:01:12.495Z,24.77
2023-09-02T01:03:44.039Z,25.60
2023-09-02T01:06:11.120Z,24.33
2023-09-02T01:08:38.454Z,24.13
2023-09-02T01:11:05.400Z,24.80
2023-09-02T01:13:32.440Z,24.80
2023-09-02T01:15:59.368Z,25.25
2023-09-02T01:18:27.493Z,24.73
2023-09-02T01:21:20.457Z,25.08
2023-09-02T01:24:21.006Z,24.30
2023-09-02T01:27:06.502Z,24.63
2023-09-02T01:29:40.462Z,25.48
2023-09-02T01:32:08.479Z,25.90
2023-09-02T01:34:37.763Z,26.73
2023-09-02T01:37:09.024Z,25.08
2023-09-02T01:39:38.336Z,26.33
2023-09-02T01:42:07.425Z,31.70
2023-09-02T01:44:34.862Z,24.30
2023-09-02T01:47:02.549Z,26.80
2023-09-02T01:49:30.653Z,26.27
2023-09-02T01:51:58.574Z,24.15
2023-09-02T01:54:26.496Z,25.25
2023-09-02T01:56:54.012Z,25.13
2023-09-02T01:59:20.772Z,25.55
2023-09-02T02:01:47.461Z,23.98
2023-09-02T02:04:34.349Z,24.70
2023-09-02T02:07:06.017Z,25.67
2023-09-02T02:09:58.806Z,25.45
2023-09-02T02:12:26.653Z,25.75
2023-09-02T02:14:53.524Z,26.80
2023-09-02T02:17:20.127Z,26.58
2023-09-02T02:19:46.773Z,25.63
2023-09-02T02:22:13.458Z,26.88
2023-09-02T02:24:40.079Z,24.50
2023-09-02T02:27:06.742Z,24.27
2023-09-02T02:29:33.319Z,25.02
2023-09-02T02:32:00.018Z,25.98
2023-09-02T02:34:26.773Z,24.90
2023-09-02T02:36:53.385Z,25.00
2023-09-02T02:39:19.967Z,24.80
2023-09-02T02:41:46.970Z,24.25
2023-09-02T02:44:13.640Z,25.23
2023-09-02T02:46:40.335Z,25.33
2023-09-02T02:49:09.617Z,25.70
2023-09-02T02:51:36.215Z,25.48
2023-09-02T02:54:02.852Z,25.88
2023-09-02T02:56:29.636Z,26.95
2023-09-02T02:58:57.312Z,27.52
2023-09-02T03:01:24.554Z,26.52
2023-09-02T03:03:51.293Z,28.25
2023-09-02T03:06:19.932Z,28.15
2023-09-02T03:08:49.504Z,28.63
2023-09-02T03:11:17.395Z,29.60
2023-09-02T03:13:44.205Z,28.98
2023-09-02T03:16:21.869Z,27.75
2023-09-02T03:18:49.293Z,26.00
2023-09-02T03:21:16.194Z,27.88
2023-09-02T03:23:42.940Z,26.30
2023-09-02T03:26:16.378Z,29.30
2023-09-02T03:28:45.646Z,27.92
2023-09-02T03:31:12.577Z,28.58
2023-09-02T03:33:42.196Z,28.42
2023-09-02T03:36:17.618Z,29.02
2023-09-02T03:38:45.668Z,27.77
2023-09-02T03:41:13.566Z,27.83
2023-09-02T03:43:40.182Z,28.77
2023-09-02T03:46:07.198Z,29.08
2023-09-02T03:48:34.773Z,28.75
2023-09-02T03:51:07.165Z,28.13
2023-09-02T03:53:36.960Z,30.38
2023-09-02T03:56:04.327Z,28.55
2023-09-02T03:58:33.209Z,28.15
2023-09-02T04:00:59.935Z,26.60
2023-09-02T04:03:28.248Z,26.90
2023-09-02T04:05:55.089Z,27.77
2023-09-02T04:08:24.113Z,28.15
2023-09-02T04:10:52.320Z,28.35
2023-09-02T04:13:26.117Z,27.02
2023-09-02T04:15:56.713Z,26.70
2023-09-02T04:18:26.042Z,26.02
2023-09-02T04:20:54.148Z,26.83
2023-09-02T04:23:23.020Z,27.13
2023-09-02T04:25:54.204Z,26.58
2023-09-02T04:28:22.850Z,26.33
2023-09-02T04:30:50.945Z,26.60
2023-09-02T04:33:22.967Z,25.95
2023-09-02T04:35:49.921Z,26.48
2023-09-02T04:38:16.560Z,25.33
2023-09-02T04:40:46.632Z,29.00
2023-09-02T04:43:14.596Z,27.77
2023-09-02T04:45:43.184Z,26.17
2023-09-02T04:48:12.775Z,26.83
2023-09-02T04:50:40.569Z,24.98
2023-09-02T04:53:09.326Z,27.10
2023-09-02T04:55:43.057Z,27.00
2023-09-02T04:58:13.008Z,26.27
2023-09-02T05:00:41.785Z,26.08
2023-09-02T05:03:09.784Z,25.88
2023-09-02T05:05:37.442Z,24.40
2023-09-02T05:08:07.573Z,25.83
2023-09-02T05:10:35.120Z,25.75
2023-09-02T05:13:02.682Z,28.13
2023-09-02T05:15:31.082Z,28.55
2023-09-02T05:18:02.034Z,27.48
2023-09-02T05:20:30.468Z,27.02
2023-09-02T05:22:57.176Z,28.70
2023-09-02T05:25:24.027Z,29.48
2023-09-02T05:27:50.624Z,29.90
2023-09-02T05:30:17.228Z,29.27
2023-09-02T05:32:43.819Z,33.08
2023-09-02T05:35:10.443Z,34.15
2023-09-02T05:37:37.126Z,32.03
2023-09-02T05:40:04.313Z,30.77
2023-09-02T05:42:30.906Z,31.02
2023-09-02T05:44:57.842Z,29.73
2023-09-02T05:47:24.427Z,36.25
2023-09-02T05:49:51.051Z,31.10
2023-09-02T05:52:17.615Z,29.63
2023-09-02T05:54:44.297Z,32.10
2023-09-02T05:57:12.358Z,32.65
2023-09-02T05:59:38.990Z,32.03
2023-09-02T06:02:06.367Z,29.85
2023-09-02T06:04:33.058Z,32.10
2023-09-02T06:06:59.626Z,30.15
2023-09-02T06:09:27.690Z,28.80
2023-09-02T06:11:54.602Z,29.48
2023-09-02T06:14:21.413Z,29.30
2023-09-02T06:16:48.031Z,27.88
2023-09-02T06:19:14.642Z,28.25
2023-09-02T06:21:41.474Z,29.13
2023-09-02T06:24:08.247Z,29.08
2023-09-02T06:26:34.955Z,30.10
2023-09-02T06:29:01.721Z,29.38
2023-09-02T06:31:28.418Z,30.08
2023-09-02T06:33:55.234Z,31.13
2023-09-02T06:36:22.610Z,32.30
2023-09-02T06:38:49.467Z,31.23
2023-09-02T06:41:16.990Z,31.83
2023-09-02T06:43:44.335Z,30.17
2023-09-02T06:46:18.940Z,31.85
2023-09-02T06:48:45.827Z,30.55
2023-09-02T06:51:13.948Z,32.88
2023-09-02T06:53:41.346Z,37.55
2023-09-02T06:56:09.495Z,37.78
2023-09-02T06:58:40.622Z,38.40
2023-09-02T07:01:07.544Z,38.83
2023-09-02T07:03:34.259Z,36.83
2023-09-02T07:06:08.054Z,34.33
2023-09-02T07:08:34.973Z,36.05
2023-09-02T07:11:01.667Z,31.13
2023-09-02T07:13:28.509Z,31.85
2023-09-02T07:16:02.687Z,33.35
2023-09-02T07:18:29.615Z,36.45
2023-09-02T07:21:06.365Z,36.13
2023-09-02T07:23:33.946Z,37.00
2023-09-02T07:26:02.572Z,34.50
2023-09-02T07:28:31.272Z,32.35
2023-09-02T07:31:06.621Z,29.92
2023-09-02T07:33:33.805Z,30.67
2023-09-02T07:36:07.476Z,30.88
2023-09-02T07:38:34.462Z,29.25
2023-09-02T07:41:01.091Z,30.10
2023-09-02T07:43:27.750Z,32.40
2023-09-02T07:45:55.352Z,30.65
2023-09-02T07:48:22.200Z,31.77
2023-09-02T07:50:49.198Z,32.33
2023-09-02T07:55:42.568Z,32.60
2023-09-02T07:58:09.274Z,32.53
2023-09-02T08:00:37.255Z,32.75
2023-09-02T08:03:04.804Z,33.28
2023-09-02T08:05:31.722Z,33.80
2023-09-02T08:07:58.915Z,34.92
2023-09-02T08:10:25.482Z,35.30
2023-09-02T08:12:52.119Z,37.15
2023-09-02T08:15:18.803Z,35.33
2023-09-02T08:17:46.127Z,37.17
2023-09-02T08:20:12.951Z,37.00
2023-09-02T08:22:40.827Z,37.08
2023-09-02T08:25:08.482Z,36.67
2023-09-02T08:27:35.402Z,35.50
2023-09-02T08:30:03.385Z,37.17
2023-09-02T08:32:31.583Z,37.10
2023-09-02T08:34:58.648Z,35.00
2023-09-02T08:37:25.312Z,36.15
2023-09-02T08:39:52.471Z,32.78
2023-09-02T08:42:21.457Z,33.97
2023-09-02T08:44:49.805Z,34.08
2023-09-02T08:47:21.039Z,33.58
2023-09-02T08:49:48.411Z,33.63
2023-09-02T08:52:15.489Z,32.25
2023-09-02T08:54:44.220Z,34.05
2023-09-02T08:57:17.228Z,33.90
2023-09-02T08:59:44.118Z,34.60
2023-09-02T09:02:14.391Z,33.90
2023-09-02T09:04:41.776Z,32.17
2023-09-02T09:07:09.784Z,31.05
2023-09-02T09:09:38.101Z,34.28
2023-09-02T09:12:07.408Z,36.60
2023-09-02T09:14:37.616Z,36.63
2023-09-02T09:17:04.880Z,36.50
2023-09-02T09:19:31.983Z,37.45
2023-09-02T09:21:58.974Z,37.53
2023-09-02T09:24:27.483Z,35.80
2023-09-02T09:26:56.349Z,34.15
2023-09-02T09:29:22.983Z,31.88
2023-09-02T09:31:52.455Z,30.98
2023-09-02T09:34:19.144Z,31.90
2023-09-02T09:36:57.766Z,30.60
2023-09-02T09:39:39.644Z,25.13
2023-09-02T09:42:06.621Z,26.10
2023-09-02T09:44:35.348Z,25.38
2023-09-02T09:47:02.170Z,23.88
2023-09-02T09:49:32.971Z,22.75
2023-09-02T09:52:02.804Z,23.00
2023-09-02T09:54:50.006Z,20.90
2023-09-02T09:57:35.374Z,21.13
2023-09-02T10:00:02.304Z,20.13
2023-09-02T10:02:32.266Z,19.65
2023-09-02T10:05:01.181Z,18.92
2023-09-02T10:07:32.212Z,18.20
2023-09-02T10:10:06.485Z,19.25
2023-09-02T10:12:39.334Z,19.90
2023-09-02T10:17:37.441Z,19.30
2023-09-02T10:20:04.794Z,18.58
2023-09-02T10:22:32.710Z,18.38
2023-09-02T10:25:17.152Z,17.92
2023-09-02T10:27:45.239Z,17.60
2023-09-02T10:30:33.567Z,17.65
2023-09-02T10:33:20.283Z,18.15
2023-09-02T10:35:58.236Z,16.80
2023-09-02T10:38:26.114Z,16.40
2023-09-02T10:41:01.256Z,16.73
2023-09-02T10:43:28.535Z,16.58
2023-09-02T10:45:55.615Z,16.92
2023-09-02T10:48:22.359Z,17.20
2023-09-02T10:50:49.811Z,15.02
2023-09-02T10:53:16.478Z,16.00
2023-09-02T10:56:00.231Z,15.90
2023-09-02T10:58:27.340Z,15.43
2023-09-02T11:00:54.326Z,15.90
2023-09-02T11:03:46.644Z,17.45
2023-09-02T11:06:16.224Z,17.35
2023-09-02T11:08:55.041Z,18.50
2023-09-02T11:11:22.188Z,18.13
2023-09-02T11:14:09.803Z,17.98
2023-09-02T11:16:39.480Z,19.55
2023-09-02T11:19:10.163Z,19.08
2023-09-02T11:21:42.686Z,19.48
2023-09-02T11:24:22.995Z,18.73
2023-09-02T11:27:01.540Z,19.55
2023-09-02T11:29:29.699Z,18.73
2023-09-02T11:32:00.075Z,18.10
2023-09-02T11:34:31.391Z,18.13
2023-09-02T11:36:59.658Z,18.45
2023-09-02T11:39:27.879Z,19.80
2023-09-02T11:42:11.036Z,17.75
2023-09-02T11:44:38.640Z,18.00
2023-09-02T11:47:08.188Z,17.63
2023-09-02T11:49:36.114Z,18.50
2023-09-02T11:52:02.883Z,20.42
2023-09-02T11:54:29.567Z,20.25
2023-09-02T11:56:58.520Z,19.67
2023-09-02T11:59:29.008Z,19.42
2023-09-02T12:02:15.582Z,19.85
2023-09-02T12:04:43.193Z,19.70
2023-09-02T12:07:10.847Z,18.90
2023-09-02T12:09:38.584Z,20.58
2023-09-02T12:12:06.623Z,21.08
2023-09-02T12:14:33.464Z,20.05
2023-09-02T12:17:00.465Z,19.85
2023-09-02T12:19:27.717Z,20.30
2023-09-02T12:21:55.526Z,19.08
2023-09-02T12:24:22.490Z,19.27
2023-09-02T12:26:52.900Z,20.23
2023-09-02T12:29:22.500Z,19.83
2023-09-02T12:31:56.680Z,19.88
2023-09-02T12:34:24.018Z,19.50
2023-09-02T12:36:50.604Z,19.10
2023-09-02T12:39:29.058Z,18.58
2023-09-02T12:41:57.194Z,18.85
2023-09-02T12:44:23.905Z,18.95
2023-09-02T12:46:53.423Z,19.50
2023-09-02T12:49:19.979Z,21.00
2023-09-02T12:51:46.640Z,19.48
2023-09-02T12:54:16.236Z,19.67
2023-09-02T12:56:42.948Z,20.52
2023-09-02T12:59:09.515Z,22.15
2023-09-02T13:01:40.819Z,21.77
2023-09-02T13:04:07.783Z,23.80
2023-09-02T13:06:34.522Z,23.17
2023-09-02T13:09:01.363Z,22.52
2023-09-02T13:11:28.518Z,24.60
2023-09-02T13:13:56.137Z,23.60
2023-09-02T13:16:23.060Z,23.85
2023-09-02T13:18:50.614Z,24.85
2023-09-02T13:21:17.275Z,25.30
2023-09-02T13:23:44.223Z,23.23
2023-09-02T13:26:15.934Z,21.58
2023-09-02T13:28:42.634Z,21.58
2023-09-02T13:31:10.984Z,21.67
2023-09-02T13:33:42.137Z,20.20
2023-09-02T13:36:09.011Z,22.30
2023-09-02T13:38:39.820Z,20.45
2023-09-02T13:41:07.722Z,22.40
2023-09-02T13:43:34.483Z,23.25
2023-09-02T13:46:01.275Z,21.50
2023-09-02T13:48:29.810Z,21.67
2023-09-02T13:51:01.166Z,23.33
2023-09-02T13:53:28.543Z,22.80
2023-09-02T13:55:55.191Z,22.15
2023-09-02T13:58:21.940Z,20.80
2023-09-02T14:00:49.425Z,21.00
2023-09-02T14:03:27.337Z,22.35
2023-09-02T14:05:56.043Z,22.02
2023-09-02T14:08:35.290Z,21.67
2023-09-02T14:11:04.672Z,22.67
2023-09-02T14:13:40.885Z,22.80
2023-09-02T14:16:08.634Z,21.73
2023-09-02T14:18:35.522Z,21.55
2023-09-02T14:21:02.348Z,21.73
2023-09-02T14:23:28.871Z,21.70
2023-09-02T14:25:55.601Z,22.40
2023-09-02T14:28:22.686Z,21.27
2023-09-02T14:31:00.456Z,21.95
2023-09-02T14:33:27.090Z,23.25
2023-09-02T14:35:53.640Z,20.83
2023-09-02T14:38:22.342Z,21.83
2023-09-02T14:40:53.003Z,20.10
2023-09-02T14:43:19.971Z,19.98
2023-09-02T14:45:46.753Z,18.95
2023-09-02T14:48:13.850Z,19.83
2023-09-02T14:50:42.120Z,20.13
2023-09-02T14:53:09.128Z,18.58
2023-09-02T14:55:35.986Z,19.70
2023-09-02T14:58:03.852Z,19.15
2023-09-02T15:00:30.879Z,18.80
2023-09-02T15:03:01.531Z,18.23
2023-09-02T15:05:33.662Z,15.75
2023-09-02T15:08:03.504Z,16.40
2023-09-02T15:10:33.641Z,15.82
2023-09-02T15:13:05.780Z,16.40
2023-09-02T15:15:40.046Z,15.02
2023-09-02T15:18:14.375Z,14.07
2023-09-02T15:20:42.081Z,14.68
2023-09-02T15:23:09.142Z,15.85
2023-09-02T15:25:35.768Z,17.65
2023-09-02T15:28:24.209Z,16.42
2023-09-02T15:30:51.204Z,15.98
2023-09-02T15:33:21.012Z,14.93
2023-09-02T15:35:48.447Z,15.60
2023-09-02T15:38:19.183Z,14.77
2023-09-02T15:40:46.070Z,13.68
2023-09-02T15:43:12.739Z,13.23
2023-09-02T15:45:40.641Z,14.05
2023-09-02T15:48:07.807Z,14.45
2023-09-02T15:50:35.126Z,14.23
2023-09-02T15:53:01.889Z,14.48
2023-09-02T15:55:28.492Z,14.45
2023-09-02T15:57:57.241Z,14.27
2023-09-02T16:00:24.838Z,15.95
2023-09-02T16:02:51.951Z,14.02
2023-09-02T16:05:19.120Z,14.60
2023-09-02T16:07:48.485Z,13.80
2023-09-02T16:10:15.284Z,13.60
2023-09-02T16:12:41.898Z,13.15
2023-09-02T16:15:12.268Z,14.00
2023-09-02T16:17:41.671Z,13.02
2023-09-02T16:20:13.584Z,14.15
2023-09-02T16:22:41.653Z,14.75
2023-09-02T16:25:08.850Z,13.32
2023-09-02T16:27:35.612Z,13.48
2023-09-02T16:30:05.666Z,14.40
2023-09-02T16:32:33.007Z,13.60
2023-09-02T16:35:02.979Z,14.50
2023-09-02T16:37:41.297Z,14.23
2023-09-02T16:40:10.532Z,13.85
2023-09-02T16:42:40.684Z,15.73
2023-09-02T16:45:08.988Z,14.48
2023-09-02T16:47:42.527Z,15.45
2023-09-02T16:50:10.213Z,15.98
2023-09-02T16:52:48.397Z,16.23
2023-09-02T16:55:18.441Z,16.65
2023-09-02T16:57:50.168Z,17.25
2023-09-02T17:00:19.303Z,16.65
2023-09-02T17:02:50.175Z,16.85
2023-09-02T17:05:22.097Z,16.90
2023-09-02T17:07:49.824Z,16.67
2023-09-02T17:10:18.543Z,15.63
2023-09-02T17:12:45.776Z,14.77
2023-09-02T17:15:15.550Z,15.88
2023-09-02T17:17:45.182Z,16.80
2023-09-02T17:23:55.884Z,15.38
2023-09-02T17:26:24.429Z,18.38
2023-09-02T17:28:51.405Z,18.50
2023-09-02T17:31:18.361Z,17.75
2023-09-02T17:33:46.254Z,17.52
2023-09-02T17:36:12.959Z,21.00
2023-09-02T17:38:40.036Z,20.08
2023-09-02T17:41:06.742Z,16.73
2023-09-02T17:43:33.429Z,15.98
2023-09-02T17:45:59.997Z,17.33
2023-09-02T17:48:26.785Z,18.13
2023-09-02T17:50:53.446Z,20.65
2023-09-02T17:53:20.135Z,16.85
2023-09-02T17:55:46.864Z,19.38
2023-09-02T17:58:16.678Z,20.23
2023-09-02T18:00:43.259Z,18.10
2023-09-02T18:03:09.979Z,17.30
2023-09-02T18:05:36.787Z,16.63
2023-09-02T18:08:04.791Z,17.90
2023-09-02T18:10:31.562Z,19.50
2023-09-02T18:12:58.433Z,20.38
2023-09-02T18:15:25.754Z,20.55
2023-09-02T18:17:52.969Z,21.40
2023-09-02T18:20:19.738Z,23.63
2023-09-02T18:22:46.515Z,28.35
2023-09-02T18:25:13.183Z,28.23
2023-09-02T18:27:42.141Z,22.65
2023-09-02T18:30:09.457Z,21.55
2023-09-02T18:32:36.162Z,18.73
2023-09-02T18:35:02.881Z,20.27
2023-09-02T18:37:29.599Z,19.00
2023-09-02T18:39:56.405Z,19.20
2023-09-02T18:42:23.546Z,24.35
2023-09-02T18:44:50.301Z,25.23
2023-09-02T18:47:17.181Z,23.48
2023-09-02T18:49:43.931Z,23.23
2023-09-02T18:52:11.136Z,23.58
2023-09-02T18:55:11.306Z,21.65
2023-09-02T18:58:00.645Z,20.45
2023-09-02T19:00:42.682Z,19.58
2023-09-02T19:03:30.890Z,21.10
2023-09-02T19:06:04.502Z,21.63
2023-09-02T19:08:42.201Z,19.98
2023-09-02T19:11:13.157Z,20.08
2023-09-02T19:13:43.461Z,21.15
2023-09-02T19:16:34.597Z,21.43
2023-09-02T19:19:17.798Z,22.33
2023-09-02T19:21:53.060Z,21.02
2023-09-02T19:24:25.597Z,20.90
2023-09-02T19:26:58.174Z,22.43
2023-09-02T19:29:34.692Z,21.70
2023-09-02T19:32:10.622Z,23.33
2023-09-02T19:34:50.778Z,24.65
2023-09-02T19:37:26.526Z,25.17
2023-09-02T19:40:02.490Z,25.35
2023-09-02T19:42:29.833Z,26.00
2023-09-02T19:45:13.147Z,27.48
2023-09-02T19:47:52.055Z,33.97
2023-09-02T19:50:31.525Z,29.20
2023-09-02T19:52:59.061Z,26.92
2023-09-02T19:55:55.433Z,25.15
2023-09-02T19:58:26.947Z,24.63
2023-09-02T20:01:16.114Z,23.40
2023-09-02T20:03:53.443Z,23.75
2023-09-02T20:06:32.353Z,23.73
2023-09-02T20:09:07.302Z,25.48
2023-09-02T20:11:42.870Z,25.65
2023-09-02T20:14:16.761Z,31.58
2023-09-02T20:16:48.832Z,27.02
2023-09-02T20:19:23.226Z,29.85
2023-09-02T20:21:56.420Z,32.25
2023-09-02T20:24:38.226Z,29.88
2023-09-02T20:27:23.900Z,21.25
2023-09-02T20:30:03.872Z,24.95
2023-09-02T20:32:38.926Z,22.27
2023-09-02T20:35:25.606Z,19.58
2023-09-02T20:38:04.520Z,19.02
2023-09-02T20:40:48.771Z,17.50
2023-09-02T20:43:33.182Z,19.30
2023-09-02T20:46:17.086Z,18.15
2023-09-02T20:48:54.541Z,18.85
2023-09-02T20:51:33.589Z,18.15
2023-09-02T20:54:13.272Z,19.50
2023-09-02T20:56:52.112Z,20.40
2023-09-02T20:59:42.749Z,21.42
2023-09-02T21:02:14.583Z,22.80
2023-09-02T21:04:55.699Z,24.70
2023-09-02T21:07:38.453Z,23.15
2023-09-02T21:10:22.986Z,17.17
2023-09-02T21:13:01.082Z,17.40
2023-09-02T21:15:54.085Z,18.27
2023-09-02T21:18:23.637Z,20.80
2023-09-02T21:21:17.204Z,19.58
2023-09-02T21:24:01.353Z,23.80
2023-09-02T21:26:48.981Z,21.53
2023-09-02T21:29:22.075Z,22.05
2023-09-02T21:34:50.264Z,23.40
2023-09-02T21:37:31.553Z,27.13
2023-09-02T21:40:24.825Z,25.35
2023-09-02T21:43:03.942Z,26.98
2023-09-02T21:45:41.070Z,26.13
